createdAt,value
2022-10-17T00:01:56.099Z,83
2022-10-17T00:03:57.808Z,83
2022-10-17T00:05:59.058Z,83
2022-10-17T00:08:00.149Z,83
2022-10-17T00:10:01.515Z,83
2022-10-17T00:12:02.926Z,82
2022-10-17T00:16:04.980Z,83
2022-10-17T00:18:06.017Z,83
2022-10-17T00:20:07.658Z,83
2022-10-17T00:22:09.277Z,83
2022-10-17T00:26:11.529Z,83
2022-10-17T00:28:12.570Z,83
2022-10-17T00:32:15.646Z,83
2022-10-17T00:36:18.890Z,82
2022-10-17T00:38:20.171Z,83
2022-10-17T00:40:21.204Z,82
2022-10-17T00:46:25.414Z,82
2022-10-17T00:48:26.453Z,83
2022-10-17T00:50:27.862Z,83
2022-10-17T00:54:30.421Z,83
2022-10-17T00:56:32.150Z,82
2022-10-17T00:58:33.814Z,83
2022-10-17T01:04:37.939Z,83
2022-10-17T01:06:39.105Z,82
2022-10-17T01:08:40.122Z,83
2022-10-17T01:10:41.615Z,82
2022-10-17T01:14:43.968Z,82
2022-10-17T01:16:45.403Z,83
2022-10-17T01:18:47.014Z,83
2022-10-17T01:20:47.952Z,82
2022-10-17T01:24:50.404Z,82
2022-10-17T01:26:51.957Z,83
2022-10-17T01:28:53.191Z,83
2022-10-17T01:30:54.463Z,82
2022-10-17T01:32:55.857Z,83
2022-10-17T01:34:57.540Z,83
2022-10-17T01:36:58.467Z,82
2022-10-17T01:39:00.228Z,83
2022-10-17T01:41:01.281Z,83
2022-10-17T01:43:02.598Z,83
2022-10-17T01:45:03.542Z,83
2022-10-17T01:47:05.142Z,83
2022-10-17T01:49:06.925Z,83
2022-10-17T01:51:08.362Z,83
2022-10-17T01:53:09.328Z,83
2022-10-17T01:57:12.180Z,83
2022-10-17T01:59:13.375Z,83
2022-10-17T02:01:15.224Z,82
2022-10-17T02:03:16.140Z,83
2022-10-17T02:07:18.958Z,83
2022-10-17T02:09:20.588Z,83
2022-10-17T02:11:21.897Z,83
2022-10-17T02:13:23.016Z,82
2022-10-17T02:17:26.354Z,83
2022-10-17T02:19:27.790Z,83
2022-10-17T02:21:29.087Z,83
2022-10-17T02:23:30.718Z,83
2022-10-17T02:29:35.250Z,83
2022-10-17T02:31:37.049Z,83
2022-10-17T02:33:38.897Z,83
2022-10-17T02:35:40.288Z,83
2022-10-17T02:39:43.108Z,83
2022-10-17T02:41:44.410Z,83
2022-10-17T02:43:45.613Z,83
2022-10-17T02:45:47.102Z,83
2022-10-17T02:49:50.317Z,83
2022-10-17T02:51:51.367Z,83
2022-10-17T02:55:54.448Z,83
2022-10-17T02:59:57.141Z,83
2022-10-17T03:01:58.441Z,83
2022-10-17T03:06:01.513Z,83
2022-10-17T03:10:04.457Z,83
2022-10-17T03:12:05.712Z,83
2022-10-17T03:14:07.368Z,83
2022-10-17T03:16:08.588Z,83
2022-10-17T03:18:10.267Z,83
2022-10-17T03:22:13.000Z,83
2022-10-17T03:26:15.323Z,83
2022-10-17T03:28:17.025Z,82
2022-10-17T03:32:19.826Z,83
2022-10-17T03:34:20.873Z,83
2022-10-17T03:38:23.398Z,82
2022-10-17T03:42:26.728Z,82
2022-10-17T03:44:28.636Z,82
2022-10-17T03:48:30.969Z,83
2022-10-17T03:52:33.438Z,83
2022-10-17T03:54:34.638Z,83
2022-10-17T03:56:36.218Z,83
2022-10-17T03:58:37.236Z,83
2022-10-17T04:00:38.477Z,83
2022-10-17T04:02:39.723Z,83
2022-10-17T04:04:41.068Z,83
2022-10-17T04:06:42.934Z,82
2022-10-17T04:08:44.255Z,83
2022-10-17T04:10:45.201Z,83
2022-10-17T04:12:46.654Z,83
2022-10-17T04:14:47.683Z,83
2022-10-17T04:16:48.605Z,83
2022-10-17T04:20:51.882Z,83
2022-10-17T04:22:53.367Z,82
2022-10-17T04:24:54.519Z,83
2022-10-17T04:26:55.827Z,82
2022-10-17T04:30:59.036Z,82
2022-10-17T04:33:00.676Z,82
2022-10-17T04:35:02.569Z,82
2022-10-17T04:37:04.456Z,83
2022-10-17T04:39:05.773Z,83
2022-10-17T04:41:07.311Z,83
2022-10-17T04:43:08.395Z,83
2022-10-17T04:47:11.473Z,82
2022-10-17T04:49:12.700Z,83
2022-10-17T04:51:13.916Z,83
2022-10-17T04:53:15.314Z,83
2022-10-17T04:55:16.469Z,82
2022-10-17T04:57:17.519Z,82
2022-10-17T04:59:18.928Z,82
2022-10-17T05:01:20.480Z,83
2022-10-17T05:04:13.787Z,83
2022-10-17T05:06:15.406Z,83
2022-10-17T05:08:16.918Z,82
2022-10-17T05:10:17.997Z,83
2022-10-17T05:12:19.434Z,82
2022-10-17T05:14:21.339Z,82
2022-10-17T05:16:23.177Z,83
2022-10-17T05:18:24.638Z,83
2022-10-17T05:20:26.189Z,83
2022-10-17T05:22:27.559Z,83
2022-10-17T05:24:28.325Z,83
2022-10-17T05:28:30.970Z,83
2022-10-17T05:30:33.793Z,83
2022-10-17T05:32:33.142Z,83
2022-10-17T05:34:34.840Z,83
2022-10-17T05:36:36.561Z,83
2022-10-17T05:40:40.251Z,83
2022-10-17T05:42:42.133Z,83
2022-10-17T05:44:43.097Z,83
2022-10-17T05:48:46.104Z,82
2022-10-17T05:50:47.069Z,83
2022-10-17T05:52:48.813Z,83
2022-10-17T05:56:50.869Z,83
2022-10-17T06:00:53.675Z,82
2022-10-17T06:02:55.111Z,83
2022-10-17T06:04:57.002Z,83
2022-10-17T06:06:58.128Z,83
2022-10-17T06:13:01.788Z,83
2022-10-17T06:15:02.786Z,83
2022-10-17T06:17:03.868Z,83
2022-10-17T06:19:05.588Z,82
2022-10-17T06:21:06.650Z,82
2022-10-17T06:23:07.864Z,83
2022-10-17T06:27:11.845Z,82
2022-10-17T06:29:12.390Z,83
2022-10-17T06:31:13.976Z,83
2022-10-17T06:33:15.078Z,83
2022-10-17T06:35:16.927Z,82
2022-10-17T06:39:20.177Z,82
2022-10-17T06:41:21.661Z,82
2022-10-17T06:43:27.026Z,82
2022-10-17T06:45:25.210Z,82
2022-10-17T06:49:27.970Z,82
2022-10-17T06:53:30.744Z,82
2022-10-17T06:55:32.280Z,82
2022-10-17T06:59:35.040Z,83
2022-10-17T07:01:36.100Z,83
2022-10-17T07:03:37.298Z,83
2022-10-17T07:05:38.540Z,82
2022-10-17T07:07:41.527Z,82
2022-10-17T07:09:41.398Z,82
2022-10-17T07:11:42.723Z,82
2022-10-17T07:13:44.253Z,82
2022-10-17T07:15:45.215Z,82
2022-10-17T07:17:46.795Z,82
2022-10-17T07:21:49.067Z,82
2022-10-17T07:23:50.056Z,82
2022-10-17T07:25:51.269Z,82
2022-10-17T07:27:52.916Z,82
2022-10-17T07:31:54.649Z,82
2022-10-17T07:33:55.576Z,82
2022-10-17T07:35:56.846Z,82
2022-10-17T07:37:57.847Z,82
2022-10-17T07:42:00.380Z,82
2022-10-17T07:44:01.891Z,82
2022-10-17T07:46:03.181Z,83
2022-10-17T07:48:04.460Z,83
2022-10-17T07:54:08.624Z,83
2022-10-17T07:56:10.015Z,83
2022-10-17T08:00:12.676Z,97
2022-10-17T08:02:13.483Z,97
2022-10-17T08:04:15.088Z,97
2022-10-17T08:06:16.141Z,97
2022-10-17T08:08:17.453Z,97
2022-10-17T08:14:21.605Z,97
2022-10-17T08:16:23.089Z,97
2022-10-17T08:20:25.809Z,97
2022-10-17T08:24:27.768Z,97
2022-10-17T08:26:28.924Z,97
2022-10-17T08:28:31.081Z,97
2022-10-17T08:36:37.029Z,97
2022-10-17T08:38:41.618Z,97
2022-10-17T08:40:39.892Z,97
2022-10-17T08:42:41.325Z,97
2022-10-17T08:44:42.888Z,97
2022-10-17T08:46:45.599Z,97
2022-10-17T08:50:48.307Z,106
2022-10-17T08:52:49.894Z,106
2022-10-17T08:54:51.372Z,106
2022-10-17T08:56:53.023Z,106
2022-10-17T08:58:54.302Z,112
2022-10-17T09:00:55.178Z,112
2022-10-17T09:04:57.469Z,112
2022-10-17T09:08:59.609Z,112
2022-10-17T09:13:05.403Z,202
2022-10-17T09:15:03.647Z,202
2022-10-17T09:17:05.099Z,202
2022-10-17T09:19:06.749Z,188
2022-10-17T09:21:08.368Z,188
2022-10-17T09:23:09.891Z,188
2022-10-17T09:25:11.339Z,188
2022-10-17T09:27:12.215Z,188
2022-10-17T09:29:13.738Z,188
2022-10-17T09:31:14.804Z,188
2022-10-17T09:33:22.745Z,188
2022-10-17T09:35:16.658Z,188
2022-10-17T09:37:17.859Z,188
2022-10-17T09:39:19.289Z,188
2022-10-17T09:41:43.386Z,188
2022-10-17T09:45:22.488Z,188
2022-10-17T09:47:23.970Z,188
2022-10-17T09:49:24.872Z,188
2022-10-17T09:51:26.352Z,188
2022-10-17T09:55:28.373Z,188
2022-10-17T09:57:29.865Z,186
2022-10-17T09:59:31.031Z,208
2022-10-17T10:03:33.422Z,221
2022-10-17T10:05:34.400Z,221
2022-10-17T10:07:35.512Z,221
2022-10-17T10:09:36.965Z,221
2022-10-17T10:11:38.674Z,221
2022-10-17T10:13:40.140Z,221
2022-10-17T10:15:41.768Z,221
2022-10-17T10:17:44.068Z,221
2022-10-17T10:21:47.196Z,221
2022-10-17T10:23:48.921Z,155
2022-10-17T10:25:50.545Z,155
2022-10-17T10:27:52.193Z,155
2022-10-17T10:31:54.819Z,155
2022-10-17T10:33:57.569Z,155
2022-10-17T10:37:58.038Z,155
2022-10-17T10:39:58.849Z,219
2022-10-17T10:44:01.435Z,233
2022-10-17T10:46:03.193Z,325
2022-10-17T10:48:04.743Z,326
2022-10-17T10:50:06.380Z,326
2022-10-17T10:54:08.134Z,325
2022-10-17T10:58:11.528Z,325
2022-10-17T11:00:13.098Z,325
2022-10-17T11:02:14.474Z,207
2022-10-17T11:04:15.296Z,207
2022-10-17T11:06:16.809Z,207
2022-10-17T11:08:18.390Z,207
2022-10-17T11:10:19.733Z,214
2022-10-17T11:12:20.975Z,214
2022-10-17T11:14:21.993Z,210
2022-10-17T11:16:23.241Z,210
2022-10-17T11:18:24.592Z,209
2022-10-17T11:22:29.010Z,162
2022-10-17T11:26:29.287Z,162
2022-10-17T11:28:30.205Z,162
2022-10-17T11:30:33.336Z,162
2022-10-17T11:32:33.035Z,167
2022-10-17T11:36:35.281Z,228
2022-10-17T11:38:36.773Z,228
2022-10-17T11:40:38.158Z,228
2022-10-17T11:42:39.399Z,228
2022-10-17T11:44:40.233Z,282
2022-10-17T11:46:41.292Z,272
2022-10-17T11:47:24.919Z,272
2022-10-17T11:53:29.275Z,269
2022-10-17T11:57:32.308Z,269
2022-10-17T11:59:33.841Z,269
2022-10-17T12:01:34.708Z,153
2022-10-17T12:03:36.144Z,153
2022-10-17T12:09:39.250Z,258
2022-10-17T12:11:40.468Z,186
2022-10-17T12:13:41.160Z,186
2022-10-17T12:15:44.718Z,160
2022-10-17T12:19:44.664Z,255
2022-10-17T12:21:45.726Z,182
2022-10-17T12:23:47.065Z,237
2022-10-17T12:25:48.817Z,237
2022-10-17T12:29:50.828Z,237
2022-10-17T12:31:51.742Z,237
2022-10-17T12:33:53.025Z,237
2022-10-17T12:35:53.839Z,278
2022-10-17T12:37:57.397Z,225
2022-10-17T12:39:56.602Z,241
2022-10-17T12:41:57.744Z,228
2022-10-17T12:43:59.181Z,237
2022-10-17T12:46:00.662Z,161
2022-10-17T12:48:02.150Z,239
2022-10-17T12:50:03.447Z,221
2022-10-17T12:52:04.636Z,245
2022-10-17T12:54:05.822Z,234
2022-10-17T12:56:06.902Z,204
2022-10-17T12:58:08.397Z,251
2022-10-17T13:02:11.186Z,224
2022-10-17T13:04:12.387Z,232
2022-10-17T13:06:13.422Z,192
2022-10-17T13:08:14.806Z,264
2022-10-17T13:10:15.693Z,235
2022-10-17T13:12:16.490Z,267
2022-10-17T13:14:17.926Z,231
2022-10-17T13:16:19.596Z,232
2022-10-17T13:18:21.137Z,281
2022-10-17T13:22:23.684Z,225
2022-10-17T13:24:24.731Z,263
2022-10-17T13:26:26.091Z,217
2022-10-17T13:28:27.706Z,227
2022-10-17T13:30:30.853Z,263
2022-10-17T13:34:32.072Z,242
2022-10-17T13:36:33.157Z,227
2022-10-17T13:38:35.640Z,222
2022-10-17T13:40:48.306Z,240
2022-10-17T13:44:42.744Z,288
2022-10-17T13:46:40.184Z,268
2022-10-17T13:50:44.388Z,221
2022-10-17T13:52:43.795Z,242
2022-10-17T13:54:45.317Z,268
2022-10-17T13:56:46.305Z,284
2022-10-17T14:00:48.709Z,240
2022-10-17T14:05:15.475Z,233
2022-10-17T14:06:52.410Z,265
2022-10-17T14:08:53.493Z,262
2022-10-17T14:10:54.815Z,246
2022-10-17T14:12:55.876Z,294
2022-10-17T14:15:09.984Z,217
2022-10-17T14:16:59.054Z,201
2022-10-17T14:19:00.485Z,237
2022-10-17T14:21:34.226Z,233
2022-10-17T14:23:21.759Z,289
2022-10-17T14:25:04.389Z,198
2022-10-17T14:27:05.205Z,193
2022-10-17T14:29:06.709Z,205
2022-10-17T14:31:07.794Z,249
2022-10-17T14:37:12.752Z,226
2022-10-17T14:39:14.526Z,244
2022-10-17T14:43:16.968Z,228
2022-10-17T14:45:21.336Z,157
2022-10-17T14:47:42.027Z,242
2022-10-17T14:49:24.180Z,251
2022-10-17T14:53:23.079Z,208
2022-10-17T14:55:24.520Z,249
2022-10-17T14:57:25.842Z,249
2022-10-17T14:59:41.964Z,253
2022-10-17T15:05:31.073Z,227
2022-10-17T15:07:32.826Z,245
2022-10-17T15:09:33.991Z,239
2022-10-17T15:11:34.911Z,248
2022-10-17T15:15:37.545Z,251
2022-10-17T15:17:38.861Z,252
2022-10-17T15:19:40.367Z,255
2022-10-17T15:21:44.767Z,255
2022-10-17T15:23:43.391Z,255
2022-10-17T15:25:44.789Z,233
2022-10-17T15:27:45.942Z,233
2022-10-17T15:31:48.509Z,243
2022-10-17T15:35:51.375Z,242
2022-10-17T15:37:53.042Z,242
2022-10-17T15:41:55.478Z,242
2022-10-17T15:45:58.482Z,247
2022-10-17T15:47:59.729Z,247
2022-10-17T15:52:02.170Z,247
2022-10-17T15:54:03.077Z,247
2022-10-17T15:56:04.036Z,247
2022-10-17T15:58:05.444Z,247
2022-10-17T16:04:08.814Z,247
2022-10-17T16:06:12.084Z,247
2022-10-17T16:08:11.255Z,247
2022-10-17T16:10:12.710Z,247
2022-10-17T16:14:14.796Z,247
2022-10-17T16:16:16.507Z,247
2022-10-17T16:18:18.067Z,247
2022-10-17T16:20:19.415Z,247
2022-10-17T16:22:20.822Z,247
2022-10-17T16:24:22.249Z,247
2022-10-17T16:26:23.245Z,247
2022-10-17T16:28:24.543Z,247
2022-10-17T16:30:25.699Z,247
2022-10-17T16:32:27.404Z,247
2022-10-17T16:34:28.823Z,247
2022-10-17T16:36:30.540Z,247
2022-10-17T16:38:32.249Z,247
2022-10-17T16:40:33.176Z,247
2022-10-17T16:42:34.825Z,247
2022-10-17T16:44:35.908Z,247
2022-10-17T16:46:37.069Z,247
2022-10-17T16:50:40.272Z,247
2022-10-17T16:52:41.771Z,247
2022-10-17T16:56:43.558Z,247
2022-10-17T16:58:45.169Z,247
2022-10-17T17:00:46.475Z,247
2022-10-17T17:02:48.350Z,247
2022-10-17T17:06:50.446Z,247
2022-10-17T17:08:51.958Z,247
2022-10-17T17:10:53.663Z,247
2022-10-17T17:12:55.173Z,247
2022-10-17T17:16:57.775Z,247
2022-10-17T17:18:58.812Z,247
2022-10-17T17:21:00.491Z,247
2022-10-17T17:23:01.724Z,247
2022-10-17T17:25:03.053Z,247
2022-10-17T17:27:04.430Z,247
2022-10-17T17:29:05.768Z,247
2022-10-17T17:31:07.125Z,247
2022-10-17T17:33:08.934Z,247
2022-10-17T17:35:10.729Z,247
2022-10-17T17:37:11.870Z,247
2022-10-17T17:39:13.146Z,247
2022-10-17T17:45:16.616Z,247
2022-10-17T17:47:17.564Z,247
2022-10-17T17:49:19.067Z,247
2022-10-17T17:51:20.676Z,247
2022-10-17T17:55:22.853Z,247
2022-10-17T17:57:23.863Z,247
2022-10-17T17:59:24.941Z,247
2022-10-17T18:01:26.308Z,247
2022-10-17T18:05:28.919Z,247
2022-10-17T18:07:30.140Z,247
2022-10-17T18:09:31.862Z,247
2022-10-17T18:11:33.152Z,247
2022-10-17T18:13:34.307Z,247
2022-10-17T18:15:36.042Z,247
2022-10-17T18:17:37.632Z,247
2022-10-17T18:19:39.038Z,247
2022-10-17T18:21:40.299Z,247
2022-10-17T18:23:41.917Z,247
2022-10-17T18:25:43.193Z,247
2022-10-17T18:27:44.720Z,247
2022-10-17T18:29:45.682Z,247
2022-10-17T18:31:46.834Z,247
2022-10-17T18:32:30.829Z,247
2022-10-17T18:34:32.241Z,247
2022-10-17T18:36:33.604Z,247
2022-10-17T18:38:35.215Z,247
2022-10-17T18:40:36.947Z,247
2022-10-17T18:42:38.338Z,247
2022-10-17T18:44:40.137Z,247
2022-10-17T18:46:41.149Z,247
2022-10-17T18:48:42.353Z,247
2022-10-17T18:52:45.732Z,247
2022-10-17T18:54:47.086Z,247
2022-10-17T18:56:48.769Z,247
2022-10-17T18:58:49.697Z,247
2022-10-17T19:02:52.122Z,247
2022-10-17T19:04:53.718Z,247
2022-10-17T19:06:55.249Z,247
2022-10-17T19:08:56.932Z,247
2022-10-17T19:10:58.407Z,247
2022-10-17T19:15:01.566Z,247
2022-10-17T19:17:02.768Z,247
2022-10-17T19:19:04.421Z,247
2022-10-17T19:21:05.714Z,247
2022-10-17T19:25:07.998Z,247
2022-10-17T19:27:09.099Z,247
2022-10-17T19:31:15.374Z,247
2022-10-17T19:33:14.245Z,247
2022-10-17T19:35:15.853Z,247
2022-10-17T19:37:17.510Z,247
2022-10-17T19:41:20.807Z,247
2022-10-17T19:43:22.414Z,247
2022-10-17T19:45:24.083Z,247
2022-10-17T19:47:25.703Z,247
2022-10-17T19:49:27.080Z,247
2022-10-17T19:51:28.014Z,247
2022-10-17T19:53:29.389Z,247
2022-10-17T19:55:30.481Z,247
2022-10-17T19:57:31.453Z,247
2022-10-17T20:03:35.157Z,247
2022-10-17T20:05:37.048Z,247
2022-10-17T20:07:38.034Z,247
2022-10-17T20:09:39.252Z,247
2022-10-17T20:13:41.889Z,247
2022-10-17T20:15:43.568Z,247
2022-10-17T20:17:45.341Z,247
2022-10-17T20:19:46.797Z,247
2022-10-17T20:23:49.580Z,247
2022-10-17T20:27:52.434Z,247
2022-10-17T20:29:53.868Z,247
2022-10-17T20:31:54.982Z,247
2022-10-17T20:33:55.845Z,247
2022-10-17T20:35:57.608Z,247
2022-10-17T20:37:59.199Z,247
2022-10-17T20:40:22.968Z,247
2022-10-17T20:42:01.838Z,247
2022-10-17T20:44:02.994Z,247
2022-10-17T20:46:15.772Z,247
2022-10-17T20:48:05.128Z,247
2022-10-17T20:50:06.987Z,247
2022-10-17T20:52:08.123Z,247
2022-10-17T20:56:11.208Z,247
2022-10-17T20:58:12.733Z,247
2022-10-17T21:02:16.202Z,247
2022-10-17T21:04:45.737Z,247
2022-10-17T21:06:19.417Z,247
2022-10-17T21:08:20.286Z,247
2022-10-17T21:10:34.761Z,247
2022-10-17T21:12:30.956Z,247
2022-10-17T21:16:24.661Z,246
2022-10-17T21:18:26.089Z,247
2022-10-17T21:20:27.300Z,246
2022-10-17T21:22:29.315Z,247
2022-10-17T21:28:33.067Z,247
2022-10-17T21:30:34.318Z,247
2022-10-17T21:32:50.948Z,247
2022-10-17T21:34:37.026Z,247
2022-10-17T21:38:39.759Z,247
2022-10-17T21:40:40.675Z,247
2022-10-17T21:42:42.138Z,247
2022-10-17T21:44:43.423Z,247
2022-10-17T21:48:46.123Z,247
2022-10-17T21:50:47.620Z,247
2022-10-17T21:54:50.184Z,247
2022-10-17T21:58:53.025Z,247
2022-10-17T22:00:54.873Z,247
2022-10-17T22:04:57.164Z,247
2022-10-17T22:06:58.812Z,247
2022-10-17T22:08:59.758Z,247
2022-10-17T22:13:02.321Z,247
2022-10-17T22:15:03.691Z,247
2022-10-17T22:17:05.243Z,247
2022-10-17T22:19:06.807Z,247
2022-10-17T22:21:08.480Z,247
2022-10-17T22:27:13.354Z,247
2022-10-17T22:29:14.888Z,247
2022-10-17T22:31:16.728Z,247
2022-10-17T22:33:18.663Z,247
2022-10-17T22:37:20.849Z,247
2022-10-17T22:41:23.297Z,247
2022-10-17T22:43:24.270Z,247
2022-10-17T22:47:26.786Z,247
2022-10-17T22:49:27.874Z,247
2022-10-17T22:51:28.929Z,247
2022-10-17T22:53:29.858Z,247
2022-10-17T22:55:30.985Z,247
2022-10-17T22:57:32.866Z,247
2022-10-17T22:59:33.804Z,247
2022-10-17T23:01:35.480Z,247
2022-10-17T23:03:36.803Z,247
2022-10-17T23:05:37.742Z,247
2022-10-17T23:07:38.680Z,247
2022-10-17T23:09:40.327Z,247
2022-10-17T23:11:41.898Z,247
2022-10-17T23:15:45.319Z,247
2022-10-17T23:17:47.074Z,247
2022-10-17T23:19:48.289Z,247
2022-10-17T23:21:49.228Z,247
2022-10-17T23:23:50.987Z,247
2022-10-17T23:25:52.481Z,247
2022-10-17T23:29:55.910Z,247
2022-10-17T23:31:57.311Z,247
2022-10-17T23:33:58.778Z,247
2022-10-17T23:36:00.307Z,247
2022-10-17T23:40:03.484Z,247
2022-10-17T23:42:04.603Z,247
2022-10-17T23:44:06.438Z,247
2022-10-17T23:46:07.734Z,247
2022-10-17T23:50:10.480Z,247
2022-10-17T23:52:12.254Z,247
2022-10-17T23:54:13.764Z,247
2022-10-17T23:56:15.509Z,247
2022-10-17T23:58:17.055Z,247
